createdAt,value
2022-08-29T00:00:43.262Z,100060.84
2022-08-29T00:03:11.415Z,100073.50
2022-08-29T00:05:39.909Z,100065.06
2022-08-29T00:08:07.079Z,100056.63
2022-08-29T00:10:34.906Z,100064.81
2022-08-29T00:13:02.172Z,100060.31
2022-08-29T00:15:29.198Z,100069.31
2022-08-29T00:17:56.083Z,100069.81
2022-08-29T00:20:30.280Z,100071.66
2022-08-29T00:23:05.327Z,100060.31
2022-08-29T00:25:32.794Z,100058.47
2022-08-29T00:27:59.827Z,100056.94
2022-08-29T00:30:26.833Z,100055.06
2022-08-29T00:32:54.063Z,100060.84
2022-08-29T00:35:23.035Z,100054.28
2022-08-29T00:37:51.642Z,100049.28
2022-08-29T00:40:22.254Z,100053.50
2022-08-29T00:42:49.142Z,100052.69
2022-08-29T00:45:17.816Z,100046.88
2022-08-29T00:47:50.368Z,100047.69
2022-08-29T00:50:22.593Z,100034.50
2022-08-29T00:52:50.256Z,100040.81
2022-08-29T00:55:21.297Z,100037.41
2022-08-29T00:57:49.586Z,100021.06
2022-08-29T01:00:17.113Z,100027.13
2022-08-29T01:02:44.190Z,100022.41
2022-08-29T01:05:11.844Z,100025.00
2022-08-29T01:07:40.800Z,100025.56
2022-08-29T01:10:13.181Z,100020.28
2022-08-29T01:12:41.289Z,100025.31
2022-08-29T01:15:09.707Z,100025.81
2022-08-29T01:17:37.774Z,100019.25
2022-08-29T01:20:19.000Z,100028.69
2022-08-29T01:22:58.050Z,100024.47
2022-08-29T01:25:27.387Z,100019.25
2022-08-29T01:28:13.311Z,100029.78
2022-08-29T01:31:07.187Z,100035.53
2022-08-29T01:34:03.570Z,100039.22
2022-08-29T01:36:45.516Z,100037.94
2022-08-29T01:39:12.368Z,100038.19
2022-08-29T01:41:41.778Z,100041.59
2022-08-29T01:44:09.944Z,100041.34
2022-08-29T01:46:36.933Z,100040.81
2022-08-29T01:49:05.335Z,100036.09
2022-08-29T01:51:32.311Z,100040.31
2022-08-29T01:53:59.151Z,100037.66
2022-08-29T01:56:28.036Z,100042.16
2022-08-29T01:58:56.479Z,100039.78
2022-08-29T02:01:25.459Z,100040.56
2022-08-29T02:03:52.871Z,100033.44
2022-08-29T02:06:19.837Z,100032.44
2022-08-29T02:08:47.002Z,100037.66
2022-08-29T02:11:18.030Z,100050.06
2022-08-29T02:13:47.381Z,100037.13
2022-08-29T02:16:15.030Z,100036.34
2022-08-29T02:18:44.948Z,100044.25
2022-08-29T02:21:13.088Z,100047.66
2022-08-29T02:23:41.311Z,100050.34
2022-08-29T02:26:08.654Z,100064.03
2022-08-29T02:28:36.537Z,100065.06
2022-08-29T02:31:04.819Z,100070.38
2022-08-29T02:33:32.184Z,100068.75
2022-08-29T02:35:59.460Z,100077.19
2022-08-29T02:38:27.156Z,100075.91
2022-08-29T02:40:54.430Z,100077.19
2022-08-29T02:43:21.680Z,100077.72
2022-08-29T02:45:48.803Z,100082.72
2022-08-29T02:48:16.260Z,100078.81
2022-08-29T02:50:44.195Z,100080.34
2022-08-29T02:53:12.359Z,100084.06
2022-08-29T02:55:39.319Z,100073.00
2022-08-29T02:58:06.563Z,100086.66
2022-08-29T03:00:34.130Z,100076.13
2022-08-29T03:03:01.016Z,100077.72
2022-08-29T03:05:29.511Z,100070.88
2022-08-29T03:07:58.042Z,100071.41
2022-08-29T03:10:25.490Z,100074.03
2022-08-29T03:12:53.195Z,100069.28
2022-08-29T03:15:20.332Z,100078.25
2022-08-29T03:17:47.517Z,100086.19
2022-08-29T03:20:16.142Z,100096.16
2022-08-29T03:22:44.100Z,100091.41
2022-08-29T03:25:12.330Z,100089.31
2022-08-29T03:27:39.779Z,100098.50
2022-08-29T03:30:08.984Z,100095.34
2022-08-29T03:32:37.548Z,100108.81
2022-08-29T03:35:04.902Z,100113.00
2022-08-29T03:37:32.810Z,100110.91
2022-08-29T03:39:59.779Z,100116.47
2022-08-29T03:42:26.792Z,100110.94
2022-08-29T03:44:53.947Z,100106.97
2022-08-29T03:47:20.774Z,100112.25
2022-08-29T03:49:47.579Z,100104.06
2022-08-29T03:52:14.946Z,100112.25
2022-08-29T03:54:41.750Z,100109.06
2022-08-29T03:57:09.481Z,100116.22
2022-08-29T03:59:36.610Z,100117.25
2022-08-29T04:02:03.681Z,100121.72
2022-08-29T04:04:48.988Z,100126.47
2022-08-29T04:07:17.519Z,100123.28
2022-08-29T04:09:44.589Z,100130.94
2022-08-29T04:12:12.191Z,100120.66
2022-08-29T04:14:40.089Z,100131.47
2022-08-29T04:17:07.475Z,100126.72
2022-08-29T04:19:35.339Z,100127.22
2022-08-29T04:22:02.984Z,100128.03
2022-08-29T04:24:30.981Z,100129.09
2022-08-29T04:26:58.298Z,100134.38
2022-08-29T04:29:26.063Z,100137.50
2022-08-29T04:31:52.958Z,100142.28
2022-08-29T04:34:21.194Z,100150.94
2022-08-29T04:36:50.129Z,100148.34
2022-08-29T04:39:19.225Z,100147.78
2022-08-29T04:41:46.111Z,100147.31
2022-08-29T04:44:13.298Z,100148.34
2022-08-29T04:46:40.282Z,100145.19
2022-08-29T04:49:08.423Z,100146.25
2022-08-29T04:51:36.460Z,100150.50
2022-08-29T04:54:04.338Z,100142.44
2022-08-29T04:56:31.204Z,100148.13
2022-08-29T04:58:58.381Z,100148.75
2022-08-29T05:01:27.251Z,100145.22
2022-08-29T05:03:55.333Z,100146.56
2022-08-29T05:06:23.664Z,100136.94
2022-08-29T05:08:55.117Z,100135.16
2022-08-29T05:11:28.626Z,100143.97
2022-08-29T05:13:55.638Z,100143.25
2022-08-29T05:16:22.492Z,100152.28
2022-08-29T05:18:50.080Z,100142.56
2022-08-29T05:21:27.326Z,100148.59
2022-08-29T05:23:56.556Z,100146.72
2022-08-29T05:27:39.821Z,100151.09
2022-08-29T05:30:07.400Z,100153.41
2022-08-29T05:32:34.199Z,100150.69
2022-08-29T05:35:01.204Z,100151.66
2022-08-29T05:37:28.313Z,100153.41
2022-08-29T05:39:55.913Z,100157.44
2022-08-29T05:42:23.372Z,100147.75
2022-08-29T05:44:50.626Z,100157.56
2022-08-29T05:47:18.023Z,100153.16
2022-08-29T05:49:46.022Z,100160.66
2022-08-29T05:52:13.671Z,100152.03
2022-08-29T05:54:41.591Z,100156.31
2022-08-29T05:57:09.311Z,100162.47
2022-08-29T05:59:37.077Z,100157.69
2022-08-29T06:02:04.657Z,100168.75
2022-08-29T06:04:31.625Z,100167.31
2022-08-29T06:06:58.730Z,100180.09
2022-08-29T06:09:25.814Z,100173.91
2022-08-29T06:11:57.713Z,100187.41
2022-08-29T06:14:25.406Z,100191.31
2022-08-29T06:16:52.966Z,100197.06
2022-08-29T06:19:19.798Z,100192.06
2022-08-29T06:21:47.531Z,100188.06
2022-08-29T06:24:14.455Z,100192.00
2022-08-29T06:26:41.314Z,100194.88
2022-08-29T06:29:09.682Z,100200.59
2022-08-29T06:31:37.067Z,100204.78
2022-08-29T06:34:05.262Z,100207.97
2022-08-29T06:36:32.586Z,100200.72
2022-08-29T06:39:00.243Z,100206.72
2022-08-29T06:41:27.189Z,100214.91
2022-08-29T06:44:00.139Z,100217.88
2022-08-29T06:46:28.970Z,100221.16
2022-08-29T06:48:57.224Z,100227.69
2022-08-29T06:51:24.892Z,100222.88
2022-08-29T06:53:51.763Z,100229.47
2022-08-29T06:56:19.300Z,100224.38
2022-08-29T06:58:47.670Z,100227.81
2022-08-29T07:01:16.566Z,100225.53
2022-08-29T07:03:43.506Z,100235.16
2022-08-29T07:06:10.833Z,100231.88
2022-08-29T07:08:42.163Z,100234.03
2022-08-29T07:11:13.902Z,100235.00
2022-08-29T07:13:41.015Z,100234.22
2022-08-29T07:16:09.838Z,100236.94
2022-08-29T07:18:37.395Z,100248.13
2022-08-29T07:21:07.841Z,100244.97
2022-08-29T07:23:34.887Z,100235.41
2022-08-29T07:26:19.585Z,100233.78
2022-08-29T07:28:50.816Z,100241.75
2022-08-29T07:31:18.682Z,100238.22
2022-08-29T07:33:45.634Z,100238.03
2022-08-29T07:36:12.608Z,100238.78
2022-08-29T07:38:39.779Z,100245.22
2022-08-29T07:41:08.525Z,100240.06
2022-08-29T07:43:35.887Z,100250.00
2022-08-29T07:46:29.467Z,100249.00
2022-08-29T07:48:59.039Z,100240.72
2022-08-29T07:51:26.886Z,100246.47
2022-08-29T07:53:54.276Z,100247.56
2022-08-29T07:56:25.188Z,100260.97
2022-08-29T07:58:52.592Z,100267.63
2022-08-29T08:01:21.154Z,100265.38
2022-08-29T08:03:50.159Z,100270.03
2022-08-29T08:06:22.088Z,100274.16
2022-08-29T08:08:49.644Z,100273.34
2022-08-29T08:11:16.843Z,100274.16
2022-08-29T08:13:44.669Z,100280.00
2022-08-29T08:16:13.361Z,100281.28
2022-08-29T08:18:42.094Z,100278.34
2022-08-29T08:21:09.902Z,100280.41
2022-08-29T08:23:37.408Z,100280.59
2022-08-29T08:26:04.722Z,100283.09
2022-08-29T08:28:32.253Z,100284.16
2022-08-29T08:31:05.113Z,100289.34
2022-08-29T08:33:39.252Z,100293.44
2022-08-29T08:36:13.549Z,100282.97
2022-08-29T08:38:40.732Z,100291.09
2022-08-29T08:41:13.004Z,100293.13
2022-08-29T08:43:48.790Z,100285.41
2022-08-29T08:46:15.955Z,100288.91
2022-08-29T08:48:43.248Z,100300.69
2022-08-29T08:51:16.778Z,100303.06
2022-08-29T08:53:46.799Z,100308.56
2022-08-29T08:56:13.711Z,100297.78
2022-08-29T08:59:13.917Z,100300.34
2022-08-29T09:02:06.609Z,100304.28
2022-08-29T09:04:40.622Z,100306.16
2022-08-29T09:07:27.056Z,100308.00
2022-08-29T09:10:14.822Z,100305.88
2022-08-29T09:12:44.892Z,100308.28
2022-08-29T09:15:19.044Z,100304.28
2022-08-29T09:17:57.987Z,100308.38
2022-08-29T09:20:28.804Z,100293.34
2022-08-29T09:23:00.577Z,100302.09
2022-08-29T09:25:31.503Z,100298.91
2022-08-29T09:27:58.793Z,100303.66
2022-08-29T09:30:29.141Z,100301.47
2022-08-29T09:33:09.212Z,100293.09
2022-08-29T09:35:44.049Z,100290.25
2022-08-29T09:38:16.957Z,100303.09
2022-08-29T09:40:47.094Z,100294.03
2022-08-29T09:43:23.702Z,100291.22
2022-08-29T09:46:03.248Z,100287.66
2022-08-29T09:48:35.392Z,100287.31
2022-08-29T09:51:13.948Z,100282.88
2022-08-29T09:53:42.309Z,100293.91
2022-08-29T09:56:19.134Z,100283.06
2022-08-29T09:58:57.064Z,100285.91
2022-08-29T10:01:28.269Z,100281.63
2022-08-29T10:03:58.423Z,100278.22
2022-08-29T10:06:28.150Z,100272.50
2022-08-29T10:09:11.199Z,100272.91
2022-08-29T10:11:47.647Z,100276.31
2022-08-29T10:14:17.402Z,100264.53
2022-08-29T10:16:48.861Z,100253.50
2022-08-29T10:19:21.442Z,100252.47
2022-08-29T10:21:55.121Z,100262.00
2022-08-29T10:24:42.500Z,100259.66
2022-08-29T10:27:09.703Z,100265.28
2022-08-29T10:29:43.069Z,100259.84
2022-08-29T10:32:17.675Z,100253.47
2022-08-29T10:35:02.404Z,100252.53
2022-08-29T10:37:36.362Z,100254.09
2022-08-29T10:40:12.547Z,100253.97
2022-08-29T10:42:45.705Z,100251.19
2022-08-29T10:45:23.715Z,100255.66
2022-08-29T10:47:56.082Z,100254.16
2022-08-29T10:50:47.669Z,100251.88
2022-08-29T10:53:40.981Z,100248.72
2022-08-29T10:56:27.353Z,100252.38
2022-08-29T10:59:00.591Z,100240.88
2022-08-29T11:01:37.161Z,100239.22
2022-08-29T11:04:04.506Z,100244.09
2022-08-29T11:06:43.670Z,100243.84
2022-08-29T11:09:18.210Z,100240.56
2022-08-29T11:12:05.259Z,100242.06
2022-08-29T11:14:37.535Z,100235.56
2022-08-29T11:17:05.871Z,100227.03
2022-08-29T11:19:37.609Z,100231.41
2022-08-29T11:22:15.991Z,100233.94
2022-08-29T11:24:47.255Z,100243.81
2022-08-29T11:27:40.736Z,100225.72
2022-08-29T11:30:11.213Z,100220.22
2022-08-29T11:32:39.891Z,100229.16
2022-08-29T11:35:18.153Z,100214.50
2022-08-29T11:37:45.700Z,100214.03
2022-08-29T11:43:26.908Z,100216.97
2022-08-29T11:46:04.491Z,100213.91
2022-08-29T11:48:34.430Z,100224.88
2022-08-29T11:51:21.225Z,100219.66
2022-08-29T11:53:48.754Z,100213.34
2022-08-29T11:56:15.965Z,100219.06
2022-08-29T11:58:46.293Z,100212.59
2022-08-29T12:01:25.591Z,100193.84
2022-08-29T12:03:54.357Z,100203.00
2022-08-29T12:06:40.044Z,100201.13
2022-08-29T12:09:13.589Z,100197.47
2022-08-29T12:11:59.496Z,100202.28
2022-08-29T12:14:35.543Z,100193.44
2022-08-29T12:17:17.100Z,100191.31
2022-08-29T12:19:49.689Z,100184.81
2022-08-29T12:22:35.564Z,100189.72
2022-08-29T12:25:21.283Z,100183.69
2022-08-29T12:28:28.023Z,100180.81
2022-08-29T12:30:57.742Z,100181.03
2022-08-29T12:33:36.800Z,100176.50
2022-08-29T12:36:25.441Z,100182.03
2022-08-29T12:38:53.402Z,100179.88
2022-08-29T12:41:41.414Z,100174.56
2022-08-29T12:44:12.124Z,100175.28
2022-08-29T12:46:41.514Z,100176.78
2022-08-29T12:49:08.670Z,100170.19
2022-08-29T12:51:39.877Z,100173.94
2022-08-29T12:54:07.463Z,100173.34
2022-08-29T12:56:35.235Z,100173.53
2022-08-29T12:59:03.661Z,100184.47
2022-08-29T13:01:37.860Z,100169.56
2022-08-29T13:04:11.490Z,100165.44
2022-08-29T13:06:49.532Z,100167.81
2022-08-29T13:09:35.752Z,100167.81
2022-08-29T13:12:10.150Z,100170.09
2022-08-29T13:15:06.665Z,100156.81
2022-08-29T13:17:35.234Z,100161.34
2022-08-29T13:20:21.348Z,100160.72
2022-08-29T13:22:48.922Z,100157.78
2022-08-29T13:25:16.936Z,100156.38
2022-08-29T13:27:45.070Z,100145.81
2022-08-29T13:30:21.575Z,100148.09
2022-08-29T13:32:50.791Z,100148.09
2022-08-29T13:35:19.701Z,100144.72
2022-08-29T13:38:06.663Z,100149.41
2022-08-29T13:40:54.930Z,100147.03
2022-08-29T13:43:27.845Z,100138.53
2022-08-29T13:46:05.043Z,100137.59
2022-08-29T13:48:33.217Z,100135.88
2022-08-29T13:51:06.672Z,100145.78
2022-08-29T13:53:34.428Z,100134.81
2022-08-29T13:56:02.124Z,100134.78
2022-08-29T13:58:30.497Z,100130.06
2022-08-29T14:00:57.970Z,100131.66
2022-08-29T14:03:25.403Z,100129.16
2022-08-29T14:05:56.419Z,100124.66
2022-08-29T14:08:24.707Z,100126.53
2022-08-29T14:10:52.096Z,100124.44
2022-08-29T14:13:19.112Z,100119.13
2022-08-29T14:15:46.196Z,100117.28
2022-08-29T14:18:13.708Z,100118.84
2022-08-29T14:20:40.630Z,100126.66
2022-08-29T14:23:08.193Z,100115.09
2022-08-29T14:25:35.508Z,100122.00
2022-08-29T14:28:02.427Z,100112.44
2022-08-29T14:30:29.323Z,100110.56
2022-08-29T14:32:56.634Z,100117.53
2022-08-29T14:35:26.506Z,100111.97
2022-08-29T14:38:01.643Z,100113.53
2022-08-29T14:40:32.455Z,100112.56
2022-08-29T14:43:00.520Z,100116.84
2022-08-29T14:45:28.133Z,100118.97
2022-08-29T14:48:00.422Z,100119.84
2022-08-29T14:50:46.040Z,100116.84
2022-08-29T14:53:13.184Z,100123.22
2022-08-29T14:55:40.102Z,100121.50
2022-08-29T14:58:06.918Z,100130.81
2022-08-29T15:00:34.156Z,100127.38
2022-08-29T15:03:01.583Z,100121.00
2022-08-29T15:05:28.746Z,100121.50
2022-08-29T15:07:56.014Z,100126.94
2022-08-29T15:10:24.048Z,100131.59
2022-08-29T15:12:51.321Z,100122.09
2022-08-29T15:15:20.565Z,100119.69
2022-08-29T15:17:47.512Z,100126.03
2022-08-29T15:23:02.606Z,100129.16
2022-08-29T15:25:29.656Z,100122.13
2022-08-29T15:27:56.521Z,100117.41
2022-08-29T15:30:24.495Z,100126.19
2022-08-29T15:32:52.271Z,100123.56
2022-08-29T15:35:19.343Z,100119.53
2022-08-29T15:37:46.566Z,100113.59
2022-08-29T15:40:13.861Z,100111.09
2022-08-29T15:42:40.923Z,100110.03
2022-08-29T15:45:10.516Z,100118.19
2022-08-29T15:47:38.793Z,100118.63
2022-08-29T15:50:07.940Z,100117.28
2022-08-29T15:52:35.651Z,100121.81
2022-08-29T15:55:02.770Z,100121.09
2022-08-29T15:57:30.442Z,100127.31
2022-08-29T15:59:58.815Z,100131.66
2022-08-29T16:02:26.774Z,100123.00
2022-08-29T16:04:56.879Z,100115.72
2022-08-29T16:07:29.281Z,100118.00
2022-08-29T16:09:57.324Z,100122.56
2022-08-29T16:12:24.761Z,100119.69
2022-08-29T16:15:00.380Z,100130.00
2022-08-29T16:17:34.844Z,100128.56
2022-08-29T16:20:02.425Z,100122.09
2022-08-29T16:22:30.583Z,100125.03
2022-08-29T16:24:58.076Z,100124.25
2022-08-29T16:27:25.022Z,100121.28
2022-08-29T16:29:52.873Z,100119.31
2022-08-29T16:32:21.475Z,100125.44
2022-08-29T16:34:48.489Z,100119.25
2022-08-29T16:37:15.683Z,100119.84
2022-08-29T16:39:42.552Z,100118.66
2022-08-29T16:42:12.180Z,100116.63
2022-08-29T16:44:39.918Z,100113.28
2022-08-29T16:47:06.971Z,100127.44
2022-08-29T16:49:33.951Z,100112.91
2022-08-29T16:52:01.067Z,100115.63
2022-08-29T16:54:28.608Z,100119.97
2022-08-29T16:56:57.038Z,100121.06
2022-08-29T16:59:24.664Z,100115.44
2022-08-29T17:01:52.444Z,100130.75
2022-08-29T17:04:20.847Z,100126.84
2022-08-29T17:06:48.354Z,100133.56
2022-08-29T17:09:16.737Z,100125.47
2022-08-29T17:11:43.740Z,100129.00
2022-08-29T17:14:11.990Z,100129.59
2022-08-29T17:16:39.903Z,100124.38
2022-08-29T17:19:07.108Z,100121.50
2022-08-29T17:21:34.948Z,100123.47
2022-08-29T17:24:02.490Z,100126.50
2022-08-29T17:26:29.607Z,100133.66
2022-08-29T17:28:56.754Z,100134.78
2022-08-29T17:31:23.822Z,100133.63
2022-08-29T17:33:50.927Z,100153.03
2022-08-29T17:36:18.551Z,100142.03
2022-08-29T17:38:46.102Z,100140.53
2022-08-29T17:41:19.746Z,100142.97
2022-08-29T17:43:48.912Z,100154.41
2022-08-29T17:46:17.405Z,100151.09
2022-08-29T17:48:45.633Z,100142.63
2022-08-29T17:51:13.038Z,100146.63
2022-08-29T17:53:41.016Z,100147.78
2022-08-29T17:56:12.242Z,100142.53
2022-08-29T17:58:40.435Z,100158.53
2022-08-29T18:01:12.406Z,100153.28
2022-08-29T18:03:42.515Z,100158.06
2022-08-29T18:06:10.279Z,100162.38
2022-08-29T18:08:39.072Z,100163.69
2022-08-29T18:11:06.612Z,100175.09
2022-08-29T18:13:34.145Z,100171.44
2022-08-29T18:16:01.800Z,100164.66
2022-08-29T18:18:29.562Z,100173.59
2022-08-29T18:20:56.458Z,100169.09
2022-08-29T18:23:23.409Z,100182.78
2022-08-29T18:25:50.992Z,100180.69
2022-08-29T18:28:20.700Z,100187.31
2022-08-29T18:30:48.324Z,100192.91
2022-08-29T18:33:15.840Z,100189.75
2022-08-29T18:35:42.807Z,100193.78
2022-08-29T18:38:10.497Z,100188.50
2022-08-29T18:40:39.994Z,100198.13
2022-08-29T18:43:07.194Z,100195.47
2022-08-29T18:45:38.485Z,100202.94
2022-08-29T18:48:05.663Z,100218.59
2022-08-29T18:50:35.554Z,100215.69
2022-08-29T18:53:11.328Z,100221.06
2022-08-29T18:55:39.035Z,100234.88
2022-08-29T18:58:07.558Z,100229.03
2022-08-29T19:00:34.716Z,100228.56
2022-08-29T19:03:02.122Z,100233.06
2022-08-29T19:05:31.166Z,100232.84
2022-08-29T19:07:58.197Z,100229.94
2022-08-29T19:10:26.212Z,100229.72
2022-08-29T19:12:54.236Z,100235.06
2022-08-29T19:15:22.369Z,100242.75
2022-08-29T19:17:49.275Z,100241.72
2022-08-29T19:20:36.673Z,100240.44
2022-08-29T19:23:05.067Z,100241.59
2022-08-29T19:25:32.353Z,100242.38
2022-08-29T19:28:05.353Z,100239.53
2022-08-29T19:30:36.562Z,100246.16
2022-08-29T19:33:06.756Z,100245.91
2022-08-29T19:35:40.169Z,100245.16
2022-08-29T19:38:08.231Z,100243.31
2022-08-29T19:40:38.999Z,100253.66
2022-08-29T19:43:14.028Z,100245.22
2022-08-29T19:45:42.381Z,100247.66
2022-08-29T19:48:15.142Z,100249.25
2022-08-29T19:50:47.504Z,100246.09
2022-08-29T19:53:19.980Z,100254.59
2022-08-29T19:55:55.090Z,100253.25
2022-08-29T19:58:25.008Z,100254.63
2022-08-29T20:01:01.730Z,100247.47
2022-08-29T20:03:29.531Z,100254.13
2022-08-29T20:06:00.157Z,100255.16
2022-08-29T20:08:27.580Z,100246.22
2022-08-29T20:10:58.994Z,100243.34
2022-08-29T20:13:28.242Z,100247.84
2022-08-29T20:16:02.258Z,100253.41
2022-08-29T20:18:31.479Z,100256.28
2022-08-29T20:20:58.923Z,100251.00
2022-08-29T20:23:31.687Z,100246.56
2022-08-29T20:26:00.234Z,100251.56
2022-08-29T20:28:28.178Z,100249.47
2022-08-29T20:30:55.501Z,100258.44
2022-08-29T20:33:23.148Z,100259.28
2022-08-29T20:36:08.506Z,100260.59
2022-08-29T20:38:38.232Z,100257.97
2022-08-29T20:41:05.405Z,100264.56
2022-08-29T20:43:33.926Z,100251.66
2022-08-29T20:46:12.932Z,100258.53
2022-08-29T20:48:39.913Z,100255.91
2022-08-29T20:51:15.103Z,100259.59
2022-08-29T20:53:42.049Z,100258.28
2022-08-29T20:56:09.694Z,100259.31
2022-08-29T20:58:38.209Z,100246.94
2022-08-29T21:01:05.455Z,100239.00
2022-08-29T21:03:52.814Z,100245.88
2022-08-29T21:06:20.425Z,100244.28
2022-08-29T21:08:47.861Z,100239.31
2022-08-29T21:11:15.989Z,100239.56
2022-08-29T21:13:43.541Z,100241.16
2022-08-29T21:16:11.153Z,100234.81
2022-08-29T21:18:38.507Z,100248.53
2022-08-29T21:21:05.663Z,100242.50
2022-08-29T21:23:34.246Z,100241.69
2022-08-29T21:26:01.927Z,100244.81
2022-08-29T21:28:29.498Z,100250.09
2022-08-29T21:31:02.490Z,100239.03
2022-08-29T21:33:29.475Z,100245.13
2022-08-29T21:35:59.802Z,100242.19
2022-08-29T21:38:28.535Z,100245.91
2022-08-29T21:40:58.643Z,100245.13
2022-08-29T21:43:25.577Z,100260.16
2022-08-29T21:45:52.767Z,100254.34
2022-08-29T21:48:19.697Z,100256.47
2022-08-29T21:50:46.567Z,100253.84
2022-08-29T21:53:14.770Z,100253.28
2022-08-29T21:55:43.026Z,100259.63
2022-08-29T21:58:09.850Z,100260.19
2022-08-29T22:00:40.531Z,100262.28
2022-08-29T22:03:08.992Z,100266.47
2022-08-29T22:05:35.947Z,100264.94
2022-08-29T22:08:07.420Z,100264.66
2022-08-29T22:10:35.386Z,100263.63
2022-08-29T22:13:03.522Z,100264.66
2022-08-29T22:15:49.444Z,100262.28
2022-08-29T22:18:16.497Z,100265.94
2022-08-29T22:20:46.662Z,100263.31
2022-08-29T22:23:14.118Z,100259.34
2022-08-29T22:25:44.910Z,100263.56
2022-08-29T22:28:11.919Z,100265.16
2022-08-29T22:30:38.940Z,100267.78
2022-08-29T22:33:06.422Z,100262.22
2022-08-29T22:35:33.444Z,100268.00
2022-08-29T22:38:00.309Z,100268.25
2022-08-29T22:40:27.985Z,100264.81
2022-08-29T22:42:56.101Z,100270.59
2022-08-29T22:45:22.957Z,100273.47
2022-08-29T22:47:50.172Z,100270.34
2022-08-29T22:50:18.666Z,100269.78
2022-08-29T22:52:46.064Z,100263.22
2022-08-29T22:55:14.460Z,100270.59
2022-08-29T22:57:44.452Z,100271.06
2022-08-29T23:00:13.308Z,100262.13
2022-08-29T23:02:40.785Z,100266.88
2022-08-29T23:05:09.946Z,100261.00
2022-08-29T23:07:37.698Z,100270.50
2022-08-29T23:10:05.651Z,100266.81
2022-08-29T23:12:32.505Z,100267.63
2022-08-29T23:14:59.340Z,100266.56
2022-08-29T23:17:27.117Z,100266.81
2022-08-29T23:19:53.931Z,100265.25
2022-08-29T23:22:20.747Z,100262.09
2022-08-29T23:24:57.688Z,100262.03
2022-08-29T23:27:29.794Z,100265.19
2022-08-29T23:29:58.409Z,100254.66
2022-08-29T23:32:25.364Z,100259.41
2022-08-29T23:34:52.661Z,100262.03
2022-08-29T23:37:19.806Z,100256.72
2022-08-29T23:39:47.028Z,100248.28
2022-08-29T23:42:13.849Z,100251.19
2022-08-29T23:44:40.985Z,100252.50
2022-08-29T23:47:08.460Z,100257.78
2022-08-29T23:49:35.654Z,100252.22
2022-08-29T23:52:03.561Z,100252.44
2022-08-29T23:57:22.401Z,100252.97
